createdAt,value
2018-02-19T00:01:31.421Z,2.69
2018-02-19T00:03:57.266Z,2.73
2018-02-19T00:06:26.496Z,2.70
2018-02-19T00:08:52.386Z,2.69
2018-02-19T00:11:22.117Z,2.73
2018-02-19T00:13:47.968Z,2.73
2018-02-19T00:16:15.271Z,2.71
2018-02-19T00:18:41.117Z,2.73
2018-02-19T00:21:10.529Z,2.63
2018-02-19T00:23:36.425Z,2.64
2018-02-19T00:26:05.664Z,2.68
2018-02-19T00:28:31.502Z,2.66
2018-02-19T00:30:59.065Z,2.48
2018-02-19T00:33:24.888Z,2.38
2018-02-19T00:35:50.715Z,2.42
2018-02-19T00:38:16.571Z,2.41
2018-02-19T00:40:42.397Z,2.56
2018-02-19T00:43:11.289Z,2.59
2018-02-19T00:45:37.174Z,2.62
2018-02-19T00:48:06.144Z,2.61
2018-02-19T00:50:32.014Z,2.64
2018-02-19T00:53:01.180Z,2.56
2018-02-19T00:55:27.028Z,2.50
2018-02-19T00:57:56.404Z,2.48
2018-02-19T01:00:22.258Z,2.46
2018-02-19T01:02:49.643Z,2.48
2018-02-19T01:05:15.480Z,2.47
2018-02-19T01:07:44.285Z,2.48
2018-02-19T01:10:10.166Z,2.50
2018-02-19T01:12:36.012Z,2.49
2018-02-19T01:15:01.865Z,2.46
2018-02-19T01:17:27.735Z,2.41
2018-02-19T01:19:56.692Z,2.22
2018-02-19T01:22:22.584Z,2.18
2018-02-19T01:24:51.940Z,1.96
2018-02-19T01:27:17.811Z,1.78
2018-02-19T01:29:47.090Z,1.68
2018-02-19T01:32:12.954Z,1.75
2018-02-19T01:34:40.387Z,1.77
2018-02-19T01:37:06.220Z,1.58
2018-02-19T01:39:35.499Z,1.65
2018-02-19T01:42:01.361Z,1.49
2018-02-19T01:44:31.021Z,1.45
2018-02-19T01:46:56.875Z,1.32
2018-02-19T01:49:22.742Z,1.31
2018-02-19T01:51:48.599Z,1.45
2018-02-19T01:54:14.441Z,1.71
2018-02-19T01:56:41.150Z,1.83
2018-02-19T01:59:07.021Z,1.92
2018-02-19T02:01:35.657Z,1.94
2018-02-19T02:04:01.510Z,1.99
2018-02-19T02:08:58.378Z,2.15
2018-02-19T02:11:25.977Z,2.24
2018-02-19T02:13:51.814Z,2.31
2018-02-19T02:16:20.893Z,2.32
2018-02-19T02:18:46.733Z,2.27
2018-02-19T02:21:16.110Z,2.34
2018-02-19T02:23:41.988Z,2.14
2018-02-19T02:26:07.835Z,1.84
2018-02-19T02:28:33.690Z,1.44
2018-02-19T02:30:59.502Z,1.17
2018-02-19T02:33:26.699Z,1.15
2018-02-19T02:35:52.573Z,1.07
2018-02-19T02:38:21.874Z,1.06
2018-02-19T02:40:47.756Z,0.95
2018-02-19T02:43:17.094Z,0.86
2018-02-19T02:45:42.938Z,0.81
2018-02-19T02:48:12.310Z,0.82
2018-02-19T02:50:38.159Z,1.02
2018-02-19T02:53:07.658Z,1.21
2018-02-19T02:55:33.495Z,1.38
2018-02-19T02:58:00.727Z,1.54
2018-02-19T03:00:26.607Z,1.73
2018-02-19T03:02:52.529Z,1.85
2018-02-19T03:05:18.355Z,1.86
2018-02-19T03:07:44.173Z,1.85
2018-02-19T03:10:11.888Z,1.79
2018-02-19T03:12:37.749Z,1.69
2018-02-19T03:15:06.490Z,1.57
2018-02-19T03:17:32.336Z,1.71
2018-02-19T03:20:00.952Z,1.78
2018-02-19T03:22:26.854Z,1.73
2018-02-19T03:27:23.567Z,1.83
2018-02-19T03:29:51.227Z,1.64
2018-02-19T03:32:17.092Z,1.71
2018-02-19T03:34:46.598Z,1.68
2018-02-19T03:37:12.476Z,1.51
2018-02-19T03:39:38.322Z,1.58
2018-02-19T03:42:04.168Z,1.52
2018-02-19T03:44:30.031Z,1.38
2018-02-19T03:46:57.563Z,1.36
2018-02-19T03:49:23.422Z,1.51
2018-02-19T03:51:52.761Z,1.67
2018-02-19T03:54:18.615Z,1.63
2018-02-19T03:56:47.841Z,1.15
2018-02-19T03:59:13.668Z,0.93
2018-02-19T04:01:42.831Z,0.80
2018-02-19T04:04:08.689Z,0.77
2018-02-19T04:06:36.092Z,0.92
2018-02-19T04:09:01.972Z,1.14
2018-02-19T04:11:30.729Z,1.23
2018-02-19T04:13:56.566Z,1.28
2018-02-19T04:16:22.415Z,1.33
2018-02-19T04:18:48.334Z,1.37
2018-02-19T04:21:14.161Z,1.35
2018-02-19T04:23:43.586Z,1.49
2018-02-19T04:26:09.422Z,1.59
2018-02-19T04:28:38.842Z,1.63
2018-02-19T04:31:04.708Z,1.58
2018-02-19T04:33:31.861Z,1.51
2018-02-19T04:35:57.701Z,1.26
2018-02-19T04:40:54.426Z,0.78
2018-02-19T04:43:21.988Z,0.62
2018-02-19T04:45:53.897Z,0.52
2018-02-19T04:48:20.102Z,0.71
2018-02-19T04:50:45.994Z,0.84
2018-02-19T04:53:11.834Z,0.92
2018-02-19T04:55:37.698Z,1.04
2018-02-19T04:58:03.560Z,1.10
2018-02-19T05:00:29.398Z,1.11
2018-02-19T05:02:55.275Z,1.22
2018-02-19T05:05:22.621Z,1.09
2018-02-19T05:07:48.477Z,0.97
2018-02-19T05:12:45.212Z,0.71
2018-02-19T05:15:12.021Z,0.65
2018-02-19T05:17:37.877Z,0.44
2018-02-19T05:20:07.076Z,0.37
2018-02-19T05:22:32.919Z,0.44
2018-02-19T05:25:02.708Z,0.47
2018-02-19T05:27:28.529Z,0.71
2018-02-19T05:29:55.296Z,0.95
2018-02-19T05:32:21.130Z,1.14
2018-02-19T05:34:47.006Z,1.22
2018-02-19T05:37:13.659Z,1.08
2018-02-19T05:39:39.570Z,1.18
2018-02-19T05:42:08.739Z,1.34
2018-02-19T05:44:34.619Z,1.42
2018-02-19T05:47:04.008Z,1.47
2018-02-19T05:49:29.858Z,1.57
2018-02-19T05:51:58.989Z,1.62
2018-02-19T05:54:24.854Z,1.63
2018-02-19T05:56:52.106Z,1.32
2018-02-19T05:59:17.968Z,1.34
2018-02-19T06:01:46.761Z,1.44
2018-02-19T06:04:12.626Z,1.56
2018-02-19T06:06:38.461Z,1.57
2018-02-19T06:09:04.327Z,1.64
2018-02-19T06:11:30.205Z,1.69
2018-02-19T06:13:59.474Z,1.63
2018-02-19T06:16:25.307Z,1.59
2018-02-19T06:18:54.778Z,1.60
2018-02-19T06:21:20.625Z,1.70
2018-02-19T06:23:48.024Z,1.79
2018-02-19T06:26:13.889Z,1.78
2018-02-19T06:28:43.404Z,1.73
2018-02-19T06:31:09.271Z,1.56
2018-02-19T06:33:38.790Z,1.41
2018-02-19T06:36:04.657Z,1.42
2018-02-19T06:38:32.350Z,1.47
2018-02-19T06:40:58.220Z,1.52
2018-02-19T06:43:24.079Z,1.59
2018-02-19T06:45:49.905Z,1.71
2018-02-19T06:48:15.732Z,1.67
2018-02-19T06:50:45.004Z,1.74
2018-02-19T06:53:10.836Z,1.68
2018-02-19T06:55:38.455Z,1.71
2018-02-19T06:58:04.317Z,1.73
2018-02-19T07:00:33.337Z,1.72
2018-02-19T07:02:59.165Z,1.77
2018-02-19T07:05:27.877Z,1.84
2018-02-19T07:07:53.725Z,1.85
2018-02-19T07:10:23.085Z,1.94
2018-02-19T07:12:48.983Z,1.62
2018-02-19T07:15:18.392Z,1.57
2018-02-19T07:17:44.241Z,1.43
2018-02-19T07:20:10.080Z,1.53
2018-02-19T07:22:35.935Z,1.38
2018-02-19T07:25:01.874Z,1.16
2018-02-19T07:27:29.362Z,0.92
2018-02-19T07:29:55.192Z,0.74
2018-02-19T07:32:24.571Z,0.67
2018-02-19T07:34:50.415Z,0.71
2018-02-19T07:37:19.823Z,0.78
2018-02-19T07:39:45.670Z,0.75
2018-02-19T07:42:13.014Z,0.73
2018-02-19T07:44:38.840Z,0.76
2018-02-19T07:49:35.600Z,1.16
2018-02-19T07:52:04.489Z,1.07
2018-02-19T07:54:30.330Z,1.10
2018-02-19T07:56:56.190Z,0.93
2018-02-19T07:59:22.034Z,0.79
2018-02-19T08:01:47.909Z,0.79
2018-02-19T08:04:14.480Z,1.04
2018-02-19T08:06:40.337Z,1.35
2018-02-19T08:09:09.087Z,1.69
2018-02-19T08:11:34.979Z,1.85
2018-02-19T08:14:03.856Z,1.89
2018-02-19T08:16:29.717Z,2.04
2018-02-19T08:18:58.525Z,2.09
2018-02-19T08:21:24.388Z,2.16
2018-02-19T08:23:53.719Z,2.35
2018-02-19T08:26:19.545Z,2.50
2018-02-19T08:28:49.424Z,2.64
2018-02-19T08:31:15.272Z,2.64
2018-02-19T08:33:41.128Z,2.15
2018-02-19T08:36:07.010Z,1.83
2018-02-19T08:38:32.858Z,1.76
2018-02-19T08:41:00.241Z,1.67
2018-02-19T08:43:26.111Z,1.74
2018-02-19T08:45:55.350Z,2.09
2018-02-19T08:48:21.897Z,2.41
2018-02-19T08:50:49.509Z,2.50
2018-02-19T08:53:15.392Z,2.64
2018-02-19T08:55:44.727Z,2.86
2018-02-19T08:58:10.570Z,2.97
2018-02-19T09:00:40.303Z,2.96
2018-02-19T09:03:06.192Z,3.12
2018-02-19T09:05:33.483Z,3.26
2018-02-19T09:07:59.324Z,3.15
2018-02-19T09:10:25.176Z,3.20
2018-02-19T09:12:51.007Z,3.31
2018-02-19T09:15:16.869Z,3.10
2018-02-19T09:17:46.592Z,3.06
2018-02-19T09:20:12.425Z,3.21
2018-02-19T09:22:39.534Z,3.40
2018-02-19T09:25:05.404Z,3.58
2018-02-19T09:27:34.026Z,3.65
2018-02-19T09:29:59.873Z,3.63
2018-02-19T09:32:29.159Z,3.65
2018-02-19T09:34:55.003Z,3.71
2018-02-19T09:37:23.715Z,3.79
2018-02-19T09:39:49.593Z,3.90
2018-02-19T09:44:46.358Z,4.01
2018-02-19T09:47:12.206Z,3.95
2018-02-19T09:49:38.050Z,3.93
2018-02-19T09:52:03.899Z,4.03
2018-02-19T09:54:30.357Z,4.11
2018-02-19T09:56:56.205Z,4.10
2018-02-19T09:59:24.940Z,4.04
2018-02-19T10:01:50.815Z,3.91
2018-02-19T10:04:31.589Z,3.88
2018-02-19T10:06:57.458Z,3.97
2018-02-19T10:09:23.300Z,3.97
2018-02-19T10:11:49.171Z,3.88
2018-02-19T10:14:15.018Z,3.97
2018-02-19T10:16:40.873Z,3.93
2018-02-19T10:19:06.735Z,4.04
2018-02-19T10:21:32.582Z,4.03
2018-02-19T10:23:58.450Z,4.13
2018-02-19T10:26:24.287Z,4.12
2018-02-19T10:28:50.248Z,4.12
2018-02-19T10:31:16.085Z,4.33
2018-02-19T10:33:41.932Z,4.26
2018-02-19T10:36:11.493Z,4.33
2018-02-19T10:38:37.352Z,4.38
2018-02-19T10:41:06.488Z,4.35
2018-02-19T10:43:32.362Z,4.29
2018-02-19T10:45:59.804Z,4.16
2018-02-19T10:48:27.413Z,4.22
2018-02-19T10:50:55.034Z,4.20
2018-02-19T10:53:20.888Z,4.06
2018-02-19T10:55:50.129Z,4.09
2018-02-19T10:58:15.998Z,4.21
2018-02-19T11:00:44.673Z,4.26
2018-02-19T11:03:10.568Z,4.30
2018-02-19T11:05:36.447Z,4.35
2018-02-19T11:08:02.296Z,4.32
2018-02-19T11:10:28.176Z,4.41
2018-02-19T11:12:56.009Z,4.41
2018-02-19T11:15:21.886Z,4.17
2018-02-19T11:17:51.098Z,4.13
2018-02-19T11:20:16.954Z,4.13
2018-02-19T11:22:45.976Z,4.04
2018-02-19T11:25:11.821Z,3.99
2018-02-19T11:27:40.978Z,3.98
2018-02-19T11:30:06.871Z,3.86
2018-02-19T11:32:35.958Z,4.00
2018-02-19T11:35:01.829Z,4.08
2018-02-19T11:37:27.649Z,4.13
2018-02-19T11:39:53.501Z,4.08
2018-02-19T11:42:19.347Z,4.13
2018-02-19T11:44:45.979Z,4.16
2018-02-19T11:47:11.838Z,4.21
2018-02-19T11:52:08.605Z,4.21
2018-02-19T11:54:37.636Z,4.32
2018-02-19T11:57:03.510Z,4.29
2018-02-19T11:59:30.678Z,4.31
2018-02-19T12:01:56.544Z,4.31
2018-02-19T12:04:25.828Z,4.30
2018-02-19T12:06:51.680Z,4.36
2018-02-19T12:09:20.985Z,4.38
2018-02-19T12:11:46.846Z,4.34
2018-02-19T12:14:12.710Z,4.30
2018-02-19T12:16:38.597Z,4.38
2018-02-19T12:19:04.446Z,4.40
2018-02-19T12:21:31.877Z,4.47
2018-02-19T12:23:57.757Z,4.58
2018-02-19T12:26:27.160Z,4.45
2018-02-19T12:28:53.045Z,4.57
2018-02-19T12:31:20.713Z,4.69
2018-02-19T12:33:46.559Z,4.68
2018-02-19T12:38:43.356Z,4.72
2018-02-19T12:41:10.958Z,4.74
2018-02-19T12:43:36.789Z,4.70
2018-02-19T12:46:06.196Z,4.41
2018-02-19T12:48:32.572Z,4.39
2018-02-19T12:50:58.433Z,4.38
2018-02-19T12:53:24.280Z,4.38
2018-02-19T12:55:50.140Z,4.40
2018-02-19T12:58:17.361Z,4.40
2018-02-19T13:00:43.236Z,4.31
2018-02-19T13:03:12.734Z,4.32
2018-02-19T13:05:38.563Z,4.19
2018-02-19T13:08:07.556Z,4.18
2018-02-19T13:10:33.449Z,4.13
2018-02-19T13:13:00.917Z,4.08
2018-02-19T13:15:26.750Z,4.24
2018-02-19T13:17:55.568Z,4.36
2018-02-19T13:20:21.503Z,4.31
2018-02-19T13:22:50.333Z,4.35
2018-02-19T13:25:16.186Z,4.30
2018-02-19T13:27:42.048Z,4.27
2018-02-19T13:30:07.904Z,4.22
2018-02-19T13:32:33.771Z,4.32
2018-02-19T13:35:03.392Z,4.32
2018-02-19T13:37:29.258Z,4.35
2018-02-19T13:39:56.860Z,4.34
2018-02-19T13:42:22.775Z,4.29
2018-02-19T13:44:51.968Z,4.34
2018-02-19T13:47:17.853Z,4.38
2018-02-19T13:49:47.566Z,4.44
2018-02-19T13:52:13.619Z,4.34
2018-02-19T13:54:42.702Z,4.36
2018-02-19T13:57:08.534Z,4.36
2018-02-19T13:59:36.391Z,4.39
2018-02-19T14:02:02.294Z,4.36
2018-02-19T14:04:28.128Z,4.39
2018-02-19T14:06:54.014Z,4.32
2018-02-19T14:09:19.891Z,4.35
2018-02-19T14:11:48.941Z,4.36
2018-02-19T14:14:14.811Z,4.31
2018-02-19T14:16:42.179Z,4.41
2018-02-19T14:19:08.041Z,4.39
2018-02-19T14:21:37.390Z,4.28
2018-02-19T14:24:03.287Z,4.23
2018-02-19T14:26:32.482Z,4.12
2018-02-19T14:28:58.335Z,4.16
2018-02-19T14:31:27.615Z,4.17
2018-02-19T14:33:53.460Z,4.14
2018-02-19T14:36:21.059Z,4.08
2018-02-19T14:38:46.906Z,4.02
2018-02-19T14:41:12.804Z,4.01
2018-02-19T14:43:38.654Z,4.00
2018-02-19T14:46:04.525Z,3.92
2018-02-19T14:48:33.482Z,3.93
2018-02-19T14:50:59.355Z,3.85
2018-02-19T14:53:28.320Z,3.76
2018-02-19T14:55:54.170Z,3.75
2018-02-19T14:58:21.954Z,3.72
2018-02-19T15:00:47.801Z,3.68
2018-02-19T15:05:44.374Z,3.61
2018-02-19T15:08:12.293Z,3.70
2018-02-19T15:10:38.173Z,3.63
2018-02-19T15:13:07.682Z,3.66
2018-02-19T15:15:33.569Z,3.67
2018-02-19T15:17:59.405Z,3.61
2018-02-19T15:20:26.165Z,3.52
2018-02-19T15:22:52.056Z,3.44
2018-02-19T15:25:17.928Z,3.38
2018-02-19T15:27:43.907Z,3.37
2018-02-19T15:32:42.059Z,3.46
2018-02-19T15:35:07.922Z,3.42
2018-02-19T15:37:33.769Z,3.38
2018-02-19T15:40:03.183Z,3.27
2018-02-19T15:42:29.028Z,3.33
2018-02-19T15:44:58.197Z,3.30
2018-02-19T15:47:24.083Z,3.29
2018-02-19T15:49:53.277Z,3.32
2018-02-19T15:52:19.147Z,3.33
2018-02-19T15:54:45.019Z,3.28
2018-02-19T15:57:10.892Z,3.22
2018-02-19T15:59:36.742Z,3.26
2018-02-19T16:02:03.529Z,3.25
2018-02-19T16:04:29.399Z,3.19
2018-02-19T16:06:58.250Z,3.21
2018-02-19T16:09:24.128Z,3.23
2018-02-19T16:11:52.838Z,3.16
2018-02-19T16:14:18.704Z,2.87
2018-02-19T16:16:47.911Z,2.86
2018-02-19T16:19:13.827Z,2.78
2018-02-19T16:24:15.384Z,2.80
2018-02-19T16:26:41.250Z,2.81
2018-02-19T16:29:07.072Z,2.82
2018-02-19T16:31:32.931Z,2.80
2018-02-19T16:33:58.782Z,2.76
2018-02-19T16:36:24.658Z,2.75
2018-02-19T16:38:50.514Z,2.73
2018-02-19T16:41:16.378Z,2.72
2018-02-19T16:43:44.024Z,2.75
2018-02-19T16:46:09.905Z,2.77
2018-02-19T16:48:41.326Z,2.67
2018-02-19T16:51:07.175Z,2.62
2018-02-19T16:53:33.055Z,2.71
2018-02-19T16:55:58.952Z,2.69
2018-02-19T16:58:28.210Z,2.70
2018-02-19T17:00:54.050Z,2.64
2018-02-19T17:03:23.353Z,2.61
2018-02-19T17:05:49.225Z,2.63
2018-02-19T17:08:15.254Z,2.62
2018-02-19T17:10:41.234Z,2.60
2018-02-19T17:13:07.074Z,2.55
2018-02-19T17:15:34.326Z,2.51
2018-02-19T17:18:00.179Z,2.47
2018-02-19T17:20:29.949Z,2.42
2018-02-19T17:22:55.827Z,2.42
2018-02-19T17:25:23.549Z,2.37
2018-02-19T17:27:49.446Z,2.33
2018-02-19T17:30:18.833Z,2.30
2018-02-19T17:32:44.748Z,2.28
2018-02-19T17:35:13.666Z,2.24
2018-02-19T17:37:39.524Z,2.28
2018-02-19T17:40:08.830Z,2.30
2018-02-19T17:42:34.929Z,2.35
2018-02-19T17:45:00.773Z,2.32
2018-02-19T17:47:26.630Z,2.36
2018-02-19T17:49:52.505Z,2.33
2018-02-19T17:52:19.610Z,2.31
2018-02-19T17:54:45.445Z,2.33
2018-02-19T17:57:14.855Z,2.30
2018-02-19T17:59:40.690Z,2.31
2018-02-19T18:02:10.130Z,2.29
2018-02-19T18:04:35.993Z,2.32
2018-02-19T18:07:05.098Z,2.34
2018-02-19T18:09:30.954Z,2.24
2018-02-19T18:11:58.360Z,2.26
2018-02-19T18:14:24.238Z,2.26
2018-02-19T18:16:52.889Z,2.19
2018-02-19T18:19:18.719Z,2.17
2018-02-19T18:21:44.718Z,2.15
2018-02-19T18:24:10.567Z,2.17
2018-02-19T18:26:36.412Z,2.11
2018-02-19T18:29:05.863Z,2.16
2018-02-19T18:31:32.098Z,2.19
2018-02-19T18:33:59.265Z,2.16
2018-02-19T18:36:25.199Z,2.14
2018-02-19T18:38:53.936Z,2.15
2018-02-19T18:41:19.905Z,2.04
2018-02-19T18:43:48.776Z,2.10
2018-02-19T18:46:14.718Z,2.08
2018-02-19T18:48:44.836Z,2.05
2018-02-19T18:51:10.723Z,2.07
2018-02-19T18:53:38.077Z,2.07
2018-02-19T18:56:03.970Z,2.09
2018-02-19T18:58:29.816Z,2.09
2018-02-19T19:00:55.645Z,2.05
2018-02-19T19:03:21.498Z,2.06
2018-02-19T19:05:51.008Z,2.08
2018-02-19T19:08:29.439Z,2.09
2018-02-19T19:10:55.320Z,2.09
2018-02-19T19:13:21.207Z,2.07
2018-02-19T19:15:47.093Z,2.03
2018-02-19T19:18:12.965Z,1.94
2018-02-19T19:20:38.818Z,2.01
2018-02-19T19:23:04.679Z,2.01
2018-02-19T19:25:30.532Z,2.00
2018-02-19T19:27:56.399Z,2.04
2018-02-19T19:30:23.766Z,2.01
2018-02-19T19:32:49.623Z,1.98
2018-02-19T19:35:15.493Z,1.98
2018-02-19T19:37:41.361Z,1.99
2018-02-19T19:40:07.226Z,1.90
2018-02-19T19:42:36.861Z,1.90
2018-02-19T19:45:02.719Z,1.93
2018-02-19T19:47:30.153Z,1.93
2018-02-19T19:49:55.980Z,1.95
2018-02-19T19:52:24.729Z,1.96
2018-02-19T19:54:50.608Z,1.82
2018-02-19T19:57:19.497Z,1.80
2018-02-19T19:59:45.366Z,1.84
2018-02-19T20:02:14.167Z,1.88
2018-02-19T20:04:40.051Z,1.90
2018-02-19T20:07:08.638Z,1.90
2018-02-19T20:09:34.489Z,1.93
2018-02-19T20:12:00.340Z,1.96
2018-02-19T20:14:26.187Z,1.96
2018-02-19T20:16:52.052Z,1.97
2018-02-19T20:19:20.932Z,1.80
2018-02-19T20:21:46.790Z,1.66
2018-02-19T20:24:15.965Z,1.69
2018-02-19T20:26:41.830Z,1.72
2018-02-19T20:29:11.022Z,1.72
2018-02-19T20:31:36.893Z,1.74
2018-02-19T20:34:06.137Z,1.64
2018-02-19T20:36:32.003Z,1.69
2018-02-19T20:39:01.002Z,1.72
2018-02-19T20:41:26.864Z,1.71
2018-02-19T20:43:56.078Z,1.79
2018-02-19T20:46:21.961Z,1.78
2018-02-19T20:48:47.826Z,1.70
2018-02-19T20:51:13.678Z,1.74
2018-02-19T20:53:39.549Z,1.75
2018-02-19T20:56:06.021Z,1.79
2018-02-19T20:58:31.888Z,1.83
2018-02-19T21:01:00.591Z,1.83
2018-02-19T21:03:26.456Z,1.82
2018-02-19T21:05:55.880Z,1.79
2018-02-19T21:08:21.731Z,1.69
2018-02-19T21:10:51.329Z,1.74
2018-02-19T21:13:17.152Z,1.68
2018-02-19T21:15:46.159Z,1.73
2018-02-19T21:18:12.004Z,1.71
2018-02-19T21:20:39.589Z,1.62
2018-02-19T21:23:05.443Z,1.51
2018-02-19T21:25:31.327Z,1.46
2018-02-19T21:27:57.185Z,1.45
2018-02-19T21:30:23.048Z,1.39
2018-02-19T21:32:52.422Z,1.41
2018-02-19T21:35:18.294Z,1.52
2018-02-19T21:37:45.774Z,1.61
2018-02-19T21:40:11.666Z,1.71
2018-02-19T21:42:40.494Z,1.65
2018-02-19T21:45:06.333Z,1.54
2018-02-19T21:47:35.227Z,1.58
2018-02-19T21:50:01.106Z,1.62
2018-02-19T21:52:30.378Z,1.65
2018-02-19T21:54:56.267Z,1.68
2018-02-19T21:57:26.007Z,1.54
2018-02-19T21:59:51.866Z,1.37
2018-02-19T22:02:17.708Z,1.09
2018-02-19T22:04:43.566Z,0.98
2018-02-19T22:07:09.398Z,1.05
2018-02-19T22:09:36.509Z,1.17
2018-02-19T22:12:02.346Z,1.25
2018-02-19T22:14:31.658Z,1.36
2018-02-19T22:16:57.539Z,1.46
2018-02-19T22:19:27.026Z,1.51
2018-02-19T22:21:52.910Z,1.55
2018-02-19T22:24:22.360Z,1.57
2018-02-19T22:26:48.214Z,1.59
2018-02-19T22:29:15.363Z,1.53
2018-02-19T22:31:41.217Z,1.54
2018-02-19T22:34:10.109Z,1.57
2018-02-19T22:36:35.970Z,1.58
2018-02-19T22:39:01.823Z,1.56
2018-02-19T22:41:27.702Z,1.54
2018-02-19T22:43:53.540Z,1.55
2018-02-19T22:46:22.897Z,1.57
2018-02-19T22:48:48.770Z,1.60
2018-02-19T22:51:17.970Z,1.53
2018-02-19T22:53:43.834Z,1.52
2018-02-19T22:56:11.205Z,1.36
2018-02-19T22:58:37.089Z,1.40
2018-02-19T23:01:06.452Z,1.51
2018-02-19T23:03:32.310Z,1.37
2018-02-19T23:06:01.626Z,1.34
2018-02-19T23:08:27.490Z,1.45
2018-02-19T23:10:56.628Z,1.54
2018-02-19T23:13:22.509Z,1.60
2018-02-19T23:15:48.358Z,1.56
2018-02-19T23:18:14.203Z,1.46
2018-02-19T23:20:40.075Z,1.53
2018-02-19T23:23:07.637Z,1.55
2018-02-19T23:25:33.503Z,1.48
2018-02-19T23:28:02.994Z,1.48
2018-02-19T23:30:28.878Z,1.55
2018-02-19T23:32:56.260Z,1.63
2018-02-19T23:35:22.140Z,1.59
2018-02-19T23:37:50.757Z,1.50
2018-02-19T23:40:16.633Z,1.28
2018-02-19T23:42:45.581Z,1.07
2018-02-19T23:45:11.413Z,1.04
2018-02-19T23:50:08.027Z,1.18
2018-02-19T23:52:33.896Z,1.31
2018-02-19T23:54:59.731Z,1.44
2018-02-19T23:57:25.579Z,1.45
2018-02-19T23:59:52.242Z,1.45
